Time;durP1;ratioP1;P1;durP2;ratioP2;P2;SDS_P1;SDS_P2;PMS_P1;PMS_P2;Temp;Humidity;BMP_temperature;BMP_pressure;BME280_temperature;BME280_humidity;BME280_pressure;Samples;Min_cycle;Max_cycle;Signal;HPM_P1;HPM_P2
2023/01/28 00:01:11;;;;;;;9.68;5.22;;;;;;;;;;4811525;29;20063;-88
2023/01/28 00:03:37;;;;;;;7.20;5.35;;;;;;;;;;4810375;29;20054;-85
2023/01/28 00:06:04;;;;;;;7.57;6.07;;;;;;;;;;4809452;29;20062;-85
2023/01/28 00:08:32;;;;;;;9.50;6.60;;;;;;;;;;4809456;29;20389;-85
2023/01/28 00:11:02;;;;;;;9.48;6.45;;;;;;;;;;4809218;29;20054;-85
2023/01/28 00:13:28;;;;;;;8.73;6.13;;;;;;;;;;4809176;29;20138;-85
2023/01/28 00:15:58;;;;;;;8.65;7.53;;;;;;;;;;4794314;29;20054;-84
2023/01/28 00:18:25;;;;;;;10.35;6.70;;;;;;;;;;4779448;29;20051;-85
2023/01/28 00:21:07;;;;;;;8.55;6.13;;;;;;;;;;4809060;29;20074;-86
2023/01/28 00:23:35;;;;;;;10.23;6.68;;;;;;;;;;4809195;29;20054;-91
2023/01/28 00:26:01;;;;;;;9.07;7.35;;;;;;;;;;4809783;29;20054;-90
2023/01/28 00:28:27;;;;;;;11.15;6.63;;;;;;;;;;4808950;29;20495;-86
2023/01/28 00:30:54;;;;;;;8.65;6.72;;;;;;;;;;4778889;29;20066;-86
2023/01/28 00:33:20;;;;;;;7.70;6.63;;;;;;;;;;4778983;29;20054;-85
2023/01/28 00:35:46;;;;;;;5.20;4.40;;;;;;;;;;4809055;29;20420;-89
2023/01/28 00:38:13;;;;;;;5.35;4.15;;;;;;;;;;4808726;29;20054;-86
2023/01/28 00:40:39;;;;;;;7.32;5.15;;;;;;;;;;4808470;29;20058;-88
2023/01/28 00:43:05;;;;;;;5.63;4.78;;;;;;;;;;4808608;29;20061;-86
2023/01/28 00:45:31;;;;;;;7.28;5.40;;;;;;;;;;4823972;29;20065;-86
2023/01/28 00:47:57;;;;;;;5.40;4.80;;;;;;;;;;4825250;29;20058;-93
2023/01/28 00:50:23;;;;;;;6.00;4.55;;;;;;;;;;4809284;29;20055;-85
2023/01/28 00:52:49;;;;;;;6.70;5.05;;;;;;;;;;4809151;29;20062;-87
2023/01/28 00:55:15;;;;;;;6.80;5.93;;;;;;;;;;4808913;29;20058;-87
2023/01/28 00:57:41;;;;;;;8.38;5.90;;;;;;;;;;4809187;29;20531;-86
2023/01/28 01:00:07;;;;;;;7.35;5.82;;;;;;;;;;4793959;29;20512;-85
2023/01/28 01:02:33;;;;;;;7.07;6.32;;;;;;;;;;4794103;29;20054;-91
2023/01/28 01:05:00;;;;;;;9.70;6.97;;;;;;;;;;4794516;29;20199;-92
2023/01/28 01:07:42;;;;;;;9.02;6.03;;;;;;;;;;4778869;29;20497;-91
2023/01/28 01:10:09;;;;;;;12.80;6.10;;;;;;;;;;4808830;29;20058;-92
2023/01/28 01:12:35;;;;;;;12.00;7.65;;;;;;;;;;4809095;29;20062;-94
2023/01/28 01:15:01;;;;;;;14.85;8.55;;;;;;;;;;4778887;29;20111;-88
2023/01/28 01:17:30;;;;;;;9.73;7.28;;;;;;;;;;4808633;29;20058;-86
2023/01/28 01:19:56;;;;;;;7.68;6.30;;;;;;;;;;4808869;29;20092;-91
2023/01/28 01:22:22;;;;;;;7.20;6.28;;;;;;;;;;4778923;29;20074;-94
2023/01/28 01:24:48;;;;;;;8.77;6.20;;;;;;;;;;4808789;29;20074;-93
2023/01/28 01:27:14;;;;;;;7.32;6.13;;;;;;;;;;4808957;29;20051;-93
2023/01/28 01:29:40;;;;;;;7.03;6.03;;;;;;;;;;4808716;29;20116;-95
2023/01/28 01:32:06;;;;;;;7.47;6.68;;;;;;;;;;4808756;29;20119;-93
2023/01/28 01:34:32;;;;;;;7.10;5.70;;;;;;;;;;4808877;29;20061;-92
2023/01/28 01:36:58;;;;;;;8.38;6.32;;;;;;;;;;4809116;29;20101;-85
2023/01/28 01:39:24;;;;;;;7.28;6.22;;;;;;;;;;4778004;29;20054;-85
2023/01/28 01:41:50;;;;;;;11.93;6.53;;;;;;;;;;4792978;29;20416;-85
2023/01/28 01:44:35;;;;;;;8.00;5.82;;;;;;;;;;4778083;29;20492;-86
2023/01/28 01:47:01;;;;;;;7.28;6.50;;;;;;;;;;4807846;29;20061;-85
2023/01/28 01:49:28;;;;;;;8.75;6.90;;;;;;;;;;4807955;29;20051;-87
2023/01/28 01:51:55;;;;;;;14.80;6.63;;;;;;;;;;4807922;29;20054;-85
2023/01/28 01:54:23;;;;;;;7.53;6.60;;;;;;;;;;4807913;29;20097;-86
2023/01/28 01:56:50;;;;;;;10.63;7.22;;;;;;;;;;4808288;29;20547;-89
2023/01/28 01:59:19;;;;;;;7.88;6.75;;;;;;;;;;4778181;29;20531;-89
2023/01/28 02:01:46;;;;;;;9.27;7.03;;;;;;;;;;4808069;29;20119;-86
2023/01/28 02:04:47;;;;;;;8.07;6.80;;;2.80;99.90;;;;;;4792900;29;20058;-85
2023/01/28 02:07:15;;;;;;;6.53;5.68;;;;;;;;;;4706677;30;20056;-86
2023/01/28 02:09:41;;;;;;;6.47;5.40;;;;;;;;;;4794316;29;20058;-86
2023/01/28 02:12:12;;;;;;;7.85;5.65;;;;;;;;;;4807794;29;20135;-85
2023/01/28 02:14:41;;;;;;;7.65;6.38;;;;;;;;;;4808119;29;20054;-89
2023/01/28 02:17:07;;;;;;;9.55;6.65;;;;;;;;;;4807897;29;20496;-86
2023/01/28 02:19:38;;;;;;;10.15;7.05;;;;;;;;;;4792646;29;20144;-87
2023/01/28 02:22:04;;;;;;;11.68;7.80;;;;;;;;;;4809991;29;20061;-86
2023/01/28 02:24:33;;;;;;;8.88;7.60;;;;;;;;;;4811352;29;20150;-87
2023/01/28 02:27:30;;;;;;;13.15;6.80;;;2.60;99.90;;;;;;4811427;29;20055;-86
2023/01/28 02:30:06;;;;;;;12.63;6.45;;;;;;;;;;4810925;29;20559;-90
2023/01/28 02:32:35;;;;;;;10.10;6.47;;;;;;;;;;4810878;29;20150;-90
2023/01/28 02:35:01;;;;;;;6.90;5.00;;;;;;;;;;4810888;29;20058;-88
2023/01/28 02:37:34;;;;;;;7.22;5.93;;;;;;;;;;4811025;29;20399;-90
2023/01/28 02:40:10;;;;;;;8.65;5.55;;;;;;;;;;4810808;29;20504;-86
2023/01/28 02:42:37;;;;;;;8.13;5.68;;;;;;;;;;4811072;29;20445;-92
2023/01/28 02:45:07;;;;;;;8.05;5.90;;;;;;;;;;4810700;29;20428;-87
2023/01/28 02:50:20;;;;;;;5.78;4.80;;;;;;;;;;4810724;29;20568;-89
2023/01/28 02:55:39;;;;;;;6.07;5.33;;;;;;;;;;4810840;29;20211;-86
2023/01/28 02:58:24;;;;;;;9.13;5.50;;;;;;;;;;4810549;29;20054;-87
2023/01/28 03:00:53;;;;;;;6.00;5.38;;;;;;;;;;4810597;29;20100;-90
2023/01/28 03:03:26;;;;;;;6.72;5.25;;;;;;;;;;4810560;29;20127;-87
2023/01/28 03:06:07;;;;;;;7.03;5.68;;;;;;;;;;4810809;29;20412;-90
2023/01/28 03:39:08;;;;;;;6.00;5.38;;;;;;;;;;4797036;29;20057;-87
2023/01/28 03:41:34;;;;;;;6.18;5.22;;;;;;;;;;4794833;29;20536;-85
2023/01/28 03:46:44;;;;;;;9.98;6.07;;;;;;;;;;4796706;29;20110;-86
2023/01/28 03:49:10;;;;;;;8.32;6.18;;;;;;;;;;4809732;29;20142;-89
2023/01/28 03:51:37;;;;;;;7.10;5.55;;;;;;;;;;4779617;29;20065;-89
2023/01/28 03:54:03;;;;;;;7.15;6.07;;;;;;;;;;4809325;29;20069;-86
2023/01/28 03:56:31;;;;;;;6.63;5.55;;;;;;;;;;4809401;29;20093;-89
2023/01/28 03:58:57;;;;;;;7.47;6.10;;;;;;;;;;4779863;29;20059;-88
2023/01/28 04:01:24;;;;;;;6.22;5.35;;;;;;;;;;4780227;29;20058;-87
2023/01/28 04:03:50;;;;;;;7.93;5.22;;;;;;;;;;4809532;29;20065;-86
2023/01/28 04:06:16;;;;;;;9.25;6.03;;;;;;;;;;4779602;29;20057;-89
2023/01/28 04:08:47;;;;;;;6.25;5.18;;;;;;;;;;4809223;29;20133;-88
2023/01/28 04:11:18;;;;;;;7.35;5.32;;;;;;;;;;4795158;29;20141;-90
2023/01/28 04:13:44;;;;;;;6.80;4.80;;;;;;;;;;4795248;29;20070;-87
2023/01/28 04:16:11;;;;;;;6.72;5.68;;;;;;;;;;4809306;29;20060;-88
2023/01/28 04:18:37;;;;;;;6.57;4.82;;;;;;;;;;4809234;29;20512;-85
2023/01/28 04:21:03;;;;;;;6.00;5.40;;;;;;;;;;4809418;29;20122;-87
2023/01/28 04:23:29;;;;;;;5.30;4.78;;;;;;;;;;4809179;29;20054;-89
2023/01/28 04:25:55;;;;;;;9.05;5.60;;;;;;;;;;4809151;29;20091;-87
2023/01/28 04:28:21;;;;;;;6.03;5.43;;;;;;;;;;4809055;29;20146;-86
2023/01/28 04:30:48;;;;;;;7.00;5.45;;;;;;;;;;4794202;29;20068;-88
2023/01/28 04:33:14;;;;;;;8.73;5.28;;;;;;;;;;4779175;29;20085;-91
2023/01/28 04:35:40;;;;;;;7.60;5.65;;;;;;;;;;4809661;29;20073;-88
2023/01/28 04:38:06;;;;;;;6.90;5.70;;;;;;;;;;4808779;29;20082;-90
2023/01/28 04:40:33;;;;;;;5.82;5.03;;;;;;;;;;4793626;29;20626;-87
2023/01/28 04:42:59;;;;;;;6.95;5.55;;;;;;;;;;4793873;29;20596;-85
2023/01/28 04:45:25;;;;;;;7.60;5.68;;;;;;;;;;4778522;29;20054;-86
2023/01/28 04:47:51;;;;;;;6.32;5.40;;;;;;;;;;4808897;29;20050;-87
2023/01/28 04:50:17;;;;;;;5.68;5.05;;;;;;;;;;4779193;29;20112;-87
2023/01/28 04:52:43;;;;;;;5.65;4.80;;;;;;;;;;4808659;29;20448;-86
2023/01/28 04:55:10;;;;;;;6.78;4.97;;;;;;;;;;4779045;29;20050;-86
2023/01/28 04:57:36;;;;;;;7.72;5.60;;;;;;;;;;4808612;29;20504;-85
2023/01/28 05:00:04;;;;;;;5.50;4.88;;;;;;;;;;4808609;29;20520;-95
2023/01/28 05:02:30;;;;;;;8.50;4.82;;;;;;;;;;4808904;29;20050;-90
2023/01/28 05:04:56;;;;;;;8.38;5.43;;;;;;;;;;4808518;29;20058;-92
2023/01/28 05:07:22;;;;;;;5.68;4.97;;;;;;;;;;4808726;29;20446;-90
2023/01/28 05:09:48;;;;;;;6.70;4.85;;;;;;;;;;4793412;29;20061;-86
2023/01/28 05:12:14;;;;;;;7.35;5.28;;;;;;;;;;4793495;29;20060;-89
2023/01/28 05:14:40;;;;;;;6.13;5.03;;;;;;;;;;4793442;29;20050;-87
2023/01/28 05:17:06;;;;;;;6.70;4.45;;;;;;;;;;4808371;29;20054;-87
2023/01/28 05:19:32;;;;;;;8.68;5.80;;;;;;;;;;4793702;29;20107;-88
2023/01/28 05:21:58;;;;;;;7.53;5.50;;;;;;;;;;4778889;29;20097;-87
2023/01/28 05:24:24;;;;;;;5.95;5.20;;;;;;;;;;4778694;29;20058;-88
2023/01/28 05:26:50;;;;;;;8.57;5.50;;;;;;;;;;4793310;29;20061;-88
2023/01/28 05:29:16;;;;;;;7.70;5.82;;;;;;;;;;4808311;29;20070;-88
2023/01/28 05:31:42;;;;;;;7.50;5.47;;;;;;;;;;4778648;29;20531;-88
2023/01/28 05:34:09;;;;;;;5.05;4.55;;;;;;;;;;4778858;29;20148;-87
2023/01/28 05:36:35;;;;;;;6.75;5.20;;;;;;;;;;4808375;29;20058;-89
2023/01/28 05:39:01;;;;;;;8.63;5.72;;;;;;;;;;4808345;29;20062;-87
2023/01/28 05:41:27;;;;;;;6.57;4.80;;;;;;;;;;4808707;29;20072;-86
2023/01/28 05:43:53;;;;;;;9.50;5.40;;;;;;;;;;4808243;29;20509;-89
2023/01/28 05:46:19;;;;;;;6.82;5.07;;;;;;;;;;4793130;29;20543;-87
2023/01/28 05:48:45;;;;;;;8.43;5.82;;;;;;;;;;4808011;29;20582;-87
2023/01/28 05:51:11;;;;;;;6.45;5.22;;;;;;;;;;4808467;29;20066;-89
2023/01/28 05:53:37;;;;;;;6.03;4.78;;;;;;;;;;4808140;29;20084;-89
2023/01/28 05:56:03;;;;;;;8.25;5.20;;;;;;;;;;4810390;29;20054;-91
2023/01/28 05:58:30;;;;;;;8.05;5.82;;;;;;;;;;4781806;29;20500;-91
2023/01/28 06:00:57;;;;;;;6.32;5.15;;;;;;;;;;4811560;29;20081;-88
2023/01/28 06:03:23;;;;;;;8.27;6.57;;;;;;;;;;4811424;29;20054;-86
2023/01/28 06:05:49;;;;;;;6.47;5.38;;;;;;;;;;4796563;29;20570;-88
2023/01/28 06:08:15;;;;;;;7.80;6.28;;;;;;;;;;4811678;29;20042;-86
2023/01/28 06:10:41;;;;;;;10.23;5.47;;;;;;;;;;4781687;29;20054;-85
2023/01/28 06:13:07;;;;;;;10.25;5.10;;;;;;;;;;4811283;29;20054;-88
2023/01/28 06:15:33;;;;;;;9.32;6.45;;;;;;;;;;4811290;29;20050;-89
2023/01/28 06:17:59;;;;;;;9.55;6.25;;;;;;;;;;4811529;29;20058;-86
2023/01/28 06:20:25;;;;;;;9.68;6.45;;;;;;;;;;4812155;29;20071;-89
2023/01/28 06:22:52;;;;;;;6.88;5.78;;;;;;;;;;4781417;29;20054;-93
2023/01/28 06:25:18;;;;;;;6.53;5.38;;;;;;;;;;4811945;29;20051;-93
2023/01/28 06:27:45;;;;;;;7.50;5.63;;;;;;;;;;4781935;29;20093;-87
2023/01/28 06:30:11;;;;;;;8.23;5.22;;;;;;;;;;4795928;29;20069;-89
2023/01/28 06:32:37;;;;;;;7.45;5.03;;;;;;;;;;4811642;29;20054;-91
2023/01/28 06:35:03;;;;;;;6.72;5.45;;;;;;;;;;4811447;29;20075;-89
2023/01/28 06:37:30;;;;;;;6.80;5.50;;;;;;;;;;4796620;29;20055;-87
2023/01/28 06:39:56;;;;;;;8.60;6.15;;;;;;;;;;4810621;29;20059;-87
2023/01/28 06:42:22;;;;;;;7.32;5.35;;;;;;;;;;4810518;29;20058;-87
2023/01/28 06:44:48;;;;;;;6.15;5.28;;;;;;;;;;4811243;29;20404;-86
2023/01/28 06:47:14;;;;;;;5.13;4.57;;;;;;;;;;4810755;29;20496;-85
2023/01/28 06:49:41;;;;;;;8.55;5.82;;;;;;;;;;4810628;29;20086;-88
2023/01/28 06:52:07;;;;;;;6.70;5.85;;;;;;;;;;4811026;29;20062;-88
2023/01/28 06:54:33;;;;;;;6.70;5.18;;;;;;;;;;4810491;29;20496;-87
2023/01/28 06:56:59;;;;;;;6.78;5.68;;;;;;;;;;4781002;29;20058;-85
2023/01/28 06:59:25;;;;;;;8.15;5.68;;;;;;;;;;4795694;29;20058;-89
2023/01/28 07:01:51;;;;;;;7.20;4.82;;;;;;;;;;4780903;29;20042;-90
2023/01/28 07:04:17;;;;;;;7.35;5.55;;;;;;;;;;4780620;29;20145;-85
2023/01/28 07:06:43;;;;;;;6.90;5.82;;;;;;;;;;4794823;29;20061;-85
2023/01/28 07:09:10;;;;;;;9.25;7.78;;;;;;;;;;4795411;29;20058;-86
2023/01/28 07:11:36;;;;;;;9.00;6.10;;;;;;;;;;4810444;29;20050;-85
2023/01/28 07:14:02;;;;;;;8.35;6.05;;;;;;;;;;4781918;29;20058;-87
2023/01/28 07:16:28;;;;;;;6.47;5.75;;;;;;;;;;4795474;29;20138;-88
2023/01/28 07:18:54;;;;;;;7.38;5.35;;;;;;;;;;4780553;29;20061;-90
2023/01/28 07:21:20;;;;;;;5.53;4.50;;;;;;;;;;4810212;29;20091;-86
2023/01/28 07:23:49;;;;;;;6.32;5.13;;;;;;;;;;4795365;29;20054;-85
2023/01/28 07:26:16;;;;;;;6.47;5.40;;;;;;;;;;4809797;29;20054;-86
2023/01/28 07:28:42;;;;;;;7.63;5.50;;;;;;;;;;4809752;29;20074;-87
2023/01/28 07:31:08;;;;;;;6.90;4.82;;;;;;;;;;4809925;29;20062;-87
2023/01/28 07:33:34;;;;;;;6.18;5.18;;;;;;;;;;4795249;29;20057;-87
2023/01/28 07:36:00;;;;;;;6.50;5.15;;;;;;;;;;4810166;29;20069;-86
2023/01/28 07:38:26;;;;;;;9.00;5.72;;;;;;;;;;4810074;29;20058;-85
2023/01/28 07:40:53;;;;;;;6.90;5.35;;;;;;;;;;4779854;29;20093;-88
2023/01/28 07:43:19;;;;;;;8.48;4.88;;;;;;;;;;4809527;29;20050;-87
2023/01/28 07:45:45;;;;;;;5.90;5.28;;;;;;;;;;4779740;29;20058;-87
2023/01/28 07:48:12;;;;;;;9.18;5.78;;;;;;;;;;4779879;29;20137;-85
2023/01/28 07:50:39;;;;;;;6.75;5.93;;;;;;;;;;4809706;29;20059;-88
2023/01/28 07:53:06;;;;;;;11.82;7.20;;;;;;;;;;4809590;29;20108;-86
2023/01/28 07:55:34;;;;;;;8.95;6.65;;;;;;;;;;4809306;29;20141;-87
2023/01/28 07:58:01;;;;;;;10.52;6.85;;;;;;;;;;4809545;29;20058;-88
2023/01/28 08:00:28;;;;;;;8.85;5.80;;;;;;;;;;4809682;29;20062;-87
2023/01/28 08:02:59;;;;;;;8.45;6.45;;;;;;;;;;4809413;29;20522;-85
2023/01/28 08:05:26;;;;;;;9.35;5.53;;;;;;;;;;4809499;29;20429;-85
2023/01/28 08:07:52;;;;;;;9.20;6.32;;;;;;;;;;4809194;29;20108;-85
2023/01/28 08:10:19;;;;;;;11.77;7.10;;;;;;;;;;4809203;29;20054;-87
2023/01/28 08:12:52;;;;;;;10.20;5.90;;;;;;;;;;4808963;29;20142;-85
2023/01/28 08:15:18;;;;;;;8.20;6.20;;;;;;;;;;4809055;29;20054;-86
2023/01/28 08:17:44;;;;;;;8.93;6.38;;;;;;;;;;4808854;29;20378;-88
2023/01/28 08:20:11;;;;;;;15.55;6.88;;;;;;;;;;4808054;29;20058;-85
2023/01/28 08:22:37;;;;;;;8.75;5.43;;;;;;;;;;4779237;29;20054;-83
2023/01/28 08:25:03;;;;;;;7.93;5.97;;;;;;;;;;4808877;29;20111;-83
2023/01/28 08:27:29;;;;;;;7.65;5.68;;;;;;;;;;4808940;29;20053;-85
2023/01/28 08:29:55;;;;;;;7.13;5.78;;;;;;;;;;4778614;29;20054;-87
2023/01/28 08:32:21;;;;;;;9.30;6.65;;;;;;;;;;4778954;29;20115;-83
2023/01/28 08:34:47;;;;;;;8.30;5.95;;;;;;;;;;4809099;29;20419;-85
2023/01/28 08:37:13;;;;;;;8.30;5.93;;;;;;;;;;4778931;29;20042;-83
2023/01/28 08:39:39;;;;;;;7.68;5.93;;;;;;;;;;4778606;29;20062;-87
2023/01/28 08:42:06;;;;;;;8.35;6.07;;;;;;;;;;4778793;29;20147;-83
2023/01/28 08:44:32;;;;;;;8.85;6.30;;;;;;;;;;4793490;29;20055;-83
2023/01/28 08:46:58;;;;;;;8.48;6.00;;;;;;;;;;4778474;29;20097;-84
2023/01/28 08:49:25;;;;;;;9.07;6.05;;;;;;;;;;4778466;29;20078;-84
2023/01/28 08:51:51;;;;;;;7.47;5.45;;;;;;;;;;4808622;29;20058;-83
2023/01/28 08:54:17;;;;;;;7.38;5.63;;;;;;;;;;4793510;29;20142;-85
2023/01/28 08:56:43;;;;;;;7.03;6.13;;;;;;;;;;4808413;29;20053;-86
2023/01/28 08:59:12;;;;;;;9.45;6.25;;;;;;;;;;4808635;29;20063;-86
2023/01/28 09:01:38;;;;;;;8.25;6.68;;;;;;;;;;4808519;29;20541;-84
2023/01/28 09:04:04;;;;;;;7.82;6.00;;;;;;;;;;4808272;29;20046;-83
2023/01/28 09:06:31;;;;;;;9.60;7.07;;;;;;;;;;4808673;29;20058;-84
2023/01/28 09:08:57;;;;;;;10.15;6.80;;;;;;;;;;4793306;29;20122;-82
2023/01/28 09:11:24;;;;;;;9.80;6.68;;;;;;;;;;4808101;29;20492;-83
2023/01/28 09:13:50;;;;;;;11.45;8.43;;;;;;;;;;4808073;29;20059;-83
2023/01/28 09:16:16;;;;;;;13.02;8.68;;;;;;;;;;4778767;29;20066;-86
2023/01/28 09:18:42;;;;;;;11.30;7.13;;;;;;;;;;4808398;29;20096;-83
2023/01/28 09:21:08;;;;;;;13.63;8.02;;;;;;;;;;4808079;29;20120;-84
2023/01/28 09:23:37;;;;;;;9.35;7.03;;;;;;;;;;4778200;29;20509;-83
2023/01/28 09:26:04;;;;;;;10.30;7.47;;;;;;;;;;4793201;29;20058;-83
2023/01/28 09:28:31;;;;;;;12.05;8.65;;;;;;;;;;4807766;29;20055;-83
2023/01/28 09:31:07;;;;;;;7.85;6.45;;;;;;;;;;4808459;29;20055;-83
2023/01/28 09:33:35;;;;;;;9.65;6.80;;;;;;;;;;4808217;29;20061;-84
2023/01/28 09:36:01;;;;;;;10.20;7.63;;;;;;;;;;4808013;29;20050;-83
2023/01/28 09:38:28;;;;;;;10.98;6.85;;;;;;;;;;4807922;29;20054;-85
2023/01/28 09:40:55;;;;;;;9.85;7.35;;;;;;;;;;4807999;29;20110;-83
2023/01/28 09:43:24;;;;;;;9.35;6.45;;;;;;;;;;4807831;29;20062;-84
2023/01/28 09:45:52;;;;;;;9.90;6.70;;;;;;;;;;4807960;29;20505;-84
2023/01/28 09:48:24;;;;;;;7.65;6.05;;;;;;;;;;4807803;29;20551;-83
2023/01/28 09:50:52;;;;;;;9.02;6.28;;;;;;;;;;4808548;29;20054;-86
2023/01/28 09:53:18;;;;;;;10.35;6.25;;;;;;;;;;4807927;29;20070;-84
2023/01/28 09:55:49;;;;;;;10.80;6.80;;;;;;;;;;4807726;29;20069;-83
2023/01/28 09:58:17;;;;;;;10.35;6.47;;;;;;;;;;4808096;29;20501;-84
2023/01/28 10:00:49;;;;;;;9.20;6.57;;;;;;;;;;4807599;29;20535;-87
2023/01/28 10:03:35;;;;;;;9.25;6.97;;;;;;;;;;4807683;29;20055;-84
2023/01/28 10:06:11;;;;;;;11.57;6.15;;;;;;;;;;4807589;29;20111;-82
2023/01/28 10:08:37;;;;;;;7.35;6.28;;;;;;;;;;4807765;29;20145;-83
2023/01/28 10:11:03;;;;;;;10.57;5.88;;;;;;;;;;4807939;29;20047;-84
2023/01/28 10:13:29;;;;;;;8.15;5.40;;;;;;;;;;4807685;29;20059;-83
2023/01/28 10:15:59;;;;;;;8.20;5.63;;;;;;;;;;4807618;29;20080;-83
2023/01/28 10:18:41;;;;;;;8.63;5.57;;;3.10;99.90;;;;;;4807778;29;20054;-83
2023/01/28 10:21:10;;;;;;;9.10;6.72;;;;;;;;;;4793044;29;20066;-83
2023/01/28 10:23:36;;;;;;;9.40;5.97;;;;;;;;;;4807666;29;20058;-83
2023/01/28 10:26:04;;;;;;;9.82;6.43;;;;;;;;;;4807693;29;20057;-84
2023/01/28 10:28:31;;;;;;;12.27;5.75;;;;;;;;;;4807447;29;20050;-84
2023/01/28 10:30:57;;;;;;;9.38;6.82;;;;;;;;;;4807587;29;20528;-84
2023/01/28 10:33:29;;;;;;;7.45;5.78;;;;;;;;;;4809121;29;20070;-84
2023/01/28 10:35:56;;;;;;;7.18;5.90;;;;;;;;;;4809931;29;20123;-86
2023/01/28 10:38:26;;;;;;;8.55;6.38;;;;;;;;;;4809460;29;20054;-87
2023/01/28 10:40:55;;;;;;;7.72;6.55;;;;;;;;;;4810015;29;20059;-84
2023/01/28 10:43:25;;;;;;;10.45;5.90;;;;;;;;;;4812360;29;20058;-83
2023/01/28 10:45:57;;;;;;;7.65;5.63;;;;;;;;;;4813127;29;20066;-86
2023/01/28 10:48:30;;;;;;;8.77;6.30;;;;;;;;;;4814644;29;20090;-85
2023/01/28 10:51:00;;;;;;;8.55;6.15;;;;;;;;;;4813317;29;20055;-84
2023/01/28 10:53:39;;;;;;;8.35;6.28;;;;;;;;;;4812849;29;20069;-83
2023/01/28 10:56:07;;;;;;;8.88;5.72;;;;;;;;;;4813314;29;20412;-84
2023/01/28 10:58:35;;;;;;;6.22;5.60;;;;;;;;;;4812537;29;20058;-85
2023/01/28 11:01:06;;;;;;;7.50;6.10;;;;;;;;;;4828586;29;20416;-86
2023/01/28 11:03:34;;;;;;;10.30;6.28;;;;;;;;;;4812198;29;20057;-85
2023/01/28 11:06:00;;;;;;;8.18;6.13;;;;;;;;;;4782534;29;20512;-82
2023/01/28 11:08:28;;;;;;;8.82;6.50;;;;;;;;;;4782186;29;20053;-82
2023/01/28 11:10:54;;;;;;;7.43;5.63;;;;;;;;;;4812674;29;20066;-85
2023/01/28 11:13:25;;;;;;;8.10;6.13;;;;;;;;;;4811900;29;20090;-82
2023/01/28 11:15:53;;;;;;;7.50;5.82;;;;;;;;;;4811897;29;20062;-82
2023/01/28 11:18:30;;;;;;;9.32;6.07;;;;;;;;;;4811834;29;20088;-85
2023/01/28 11:21:14;;;;;;;9.43;6.47;;;4.00;99.90;;;;;;4811678;29;20145;-83
2023/01/28 11:24:19;;;;;;;10.00;5.88;;;;;;;;;;4811234;29;20075;-85
2023/01/28 11:26:48;;;;;;;8.48;6.57;;;;;;;;;;4743326;30;20139;-86
2023/01/28 11:29:25;;;;;;;8.02;5.90;;;;;;;;;;4745170;30;20060;-84
2023/01/28 11:31:51;;;;;;;7.30;5.70;;;;;;;;;;4777049;29;20072;-84
2023/01/28 11:34:18;;;;;;;9.60;5.85;;;;;;;;;;4785787;29;20118;-86
2023/01/28 11:36:52;;;;;;;6.80;5.40;;;;;;;;;;4815939;29;20058;-84
2023/01/28 11:39:27;;;;;;;10.02;6.43;;;;;;;;;;4815740;29;20046;-83
2023/01/28 11:41:53;;;;;;;9.63;5.95;;;;;;;;;;4815567;29;20054;-84
2023/01/28 11:44:23;;;;;;;9.68;6.13;;;;;;;;;;4816179;29;20062;-87
2023/01/28 11:46:50;;;;;;;8.82;6.43;;;;;;;;;;4815565;29;20058;-85
2023/01/28 11:49:22;;;;;;;7.88;5.97;;;;;;;;;;4815605;29;20146;-86
2023/01/28 11:51:48;;;;;;;8.20;5.82;;;;;;;;;;4815479;29;20064;-84
2023/01/28 11:54:37;;;;;;;9.75;6.15;;;;;;;;;;4815783;29;20114;-89
2023/01/28 11:57:03;;;;;;;10.05;6.18;;;;;;;;;;4777736;29;20101;-90
2023/01/28 11:59:30;;;;;;;7.68;6.45;;;;;;;;;;4818085;29;20141;-91
2023/01/28 12:02:15;;;;;;;13.35;7.28;;;;;;;;;;4817448;29;20433;-92
2023/01/28 12:05:08;;;;;;;12.32;8.85;;;;;;;;;;4826748;29;20090;-91
2023/01/28 12:07:40;;;;;;;12.73;7.10;;;;;;;;;;4806860;29;20051;-91
2023/01/28 12:10:12;;;;;;;10.05;6.38;;;;;;;;;;4827420;29;20300;-91
2023/01/28 12:12:47;;;;;;;9.27;6.32;;;;;;;;;;4809894;29;20492;-91
2023/01/28 12:15:25;;;;;;;11.48;6.47;;;;;;;;;;4809986;29;20583;-91
2023/01/28 12:17:51;;;;;;;15.70;8.98;;;;;;;;;;4810318;29;20527;-92
2023/01/28 12:20:37;;;;;;;9.20;5.25;;;;;;;;;;4810532;29;20145;-89
2023/01/28 12:23:09;;;;;;;7.75;5.22;;;;;;;;;;4825991;29;20066;-89
2023/01/28 12:25:45;;;;;;;10.13;6.07;;;;;;;;;;4809690;29;20064;-90
2023/01/28 12:28:11;;;;;;;10.75;6.03;;;;;;;;;;4811298;29;20110;-85
2023/01/28 12:30:52;;;;;;;6.38;4.80;;;;;;;;;;4808993;29;20145;-85
2023/01/28 12:33:24;;;;;;;13.30;5.40;;;;;;;;;;4809243;29;20065;-84
2023/01/28 12:36:05;;;;;;;6.07;4.93;;;;;;;;;;4808865;29;20500;-84
2023/01/28 12:38:44;;;;;;;8.60;5.88;;;;;;;;;;4809281;29;20111;-84
2023/01/28 12:41:11;;;;;;;11.57;8.52;;;;;;;;;;4809026;29;20060;-85
2023/01/28 12:43:54;;;;;;;8.63;5.97;;;;;;;;;;4808728;29;20058;-85
2023/01/28 12:46:52;;;;;;;9.07;5.82;;;4.80;99.90;;;;;;4808521;29;20050;-86
2023/01/28 12:49:29;;;;;;;7.95;5.13;;;;;;;;;;4808461;29;20058;-84
2023/01/28 12:52:02;;;;;;;6.63;4.13;;;;;;;;;;4808467;29;20054;-85
2023/01/28 12:54:48;;;;;;;7.53;4.40;;;;;;;;;;4809002;29;20058;-85
2023/01/28 12:57:18;;;;;;;8.20;5.25;;;;;;;;;;4784744;29;20492;-85
2023/01/28 12:59:49;;;;;;;8.35;6.05;;;;;;;;;;4808580;29;20064;-84
2023/01/28 13:02:21;;;;;;;9.65;4.72;;;;;;;;;;4808230;29;20058;-84
2023/01/28 13:05:05;;;;;;;9.50;4.95;;;;;;;;;;4808070;29;20065;-83
2023/01/28 13:07:46;;;;;;;;;;;5.20;99.90;;;;;;4808608;29;20179;-86
2023/01/28 13:10:28;;;;;;;4.57;3.70;;;;;;;;;;4793427;29;20070;-84
2023/01/28 13:12:55;;;;;;;7.63;4.47;;;;;;;;;;4808342;29;20058;-84
2023/01/28 13:15:22;;;;;;;7.75;4.45;;;;;;;;;;4808174;29;20485;-85
2023/01/28 13:17:57;;;;;;;6.97;4.45;;;;;;;;;;4808097;29;20094;-87
2023/01/28 13:20:38;;;;;;;7.60;5.03;;;;;;;;;;4808596;29;20122;-83
2023/01/28 13:23:06;;;;;;;8.38;4.80;;;;;;;;;;4808413;29;20065;-85
2023/01/28 13:25:33;;;;;;;9.50;4.95;;;;;;;;;;4792031;29;20054;-85
2023/01/28 13:28:05;;;;;;;7.32;4.75;;;;;;;;;;4808232;29;20087;-83
2023/01/28 13:30:32;;;;;;;8.63;5.78;;;;;;;;;;4808043;29;20054;-84
2023/01/28 13:33:04;;;;;;;7.63;4.72;;;;;;;;;;4807886;29;20089;-85
2023/01/28 13:35:32;;;;;;;7.97;5.13;;;;;;;;;;4808243;29;20104;-83
2023/01/28 13:37:59;;;;;;;9.40;5.95;;;;;;;;;;4808199;29;20137;-83
2023/01/28 13:40:27;;;;;;;7.97;5.50;;;;;;;;;;4808058;29;20120;-83
2023/01/28 13:43:06;;;;;;;7.57;4.97;;;;;;;;;;4807777;29;20058;-84
2023/01/28 13:45:33;;;;;;;9.50;5.70;;;;;;;;;;4807782;29;20054;-84
2023/01/28 13:48:01;;;;;;;10.48;7.53;;;;;;;;;;4808159;29;20110;-83
2023/01/28 13:50:34;;;;;;;9.45;6.20;;;;;;;;;;4808314;29;20497;-83
2023/01/28 13:53:06;;;;;;;11.52;7.40;;;;;;;;;;4807948;29;20480;-84
2023/01/28 13:55:37;;;;;;;11.73;6.72;;;;;;;;;;4807937;29;20112;-84
2023/01/28 13:58:36;;;;;;;7.93;6.00;;;;;;;;;;4808777;29;20054;-88
2023/01/28 14:01:02;;;;;;;10.55;6.85;;;;;;;;;;4764024;29;20207;-87
2023/01/28 14:03:47;;;;;;;12.52;7.55;;;;;;;;;;4808565;29;20501;-87
2023/01/28 14:06:32;;;;;;;11.23;6.85;;;;;;;;;;4808427;29;20059;-88
2023/01/28 14:09:17;;;;;;;10.93;6.15;;;;;;;;;;4807950;29;20068;-89
2023/01/28 14:12:13;;;;;;;9.00;6.18;;;;;;;;;;4808256;29;20097;-88
2023/01/28 14:15:18;;;;;;;7.45;4.40;;;5.30;99.90;;;;;;4745944;29;20539;-91
2023/01/28 14:17:49;;;;;;;10.82;5.18;;;;;;;;;;4796300;29;20150;-91
2023/01/28 14:20:15;;;;;;;9.20;4.68;;;;;;;;;;4811438;29;20054;-87
2023/01/28 14:22:41;;;;;;;7.20;4.43;;;;;;;;;;4811440;29;20419;-90
2023/01/28 14:25:12;;;;;;;9.93;4.05;;;;;;;;;;4811766;29;20054;-88
2023/01/28 14:27:40;;;;;;;7.00;4.07;;;;;;;;;;4811960;29;20101;-90
2023/01/28 14:30:07;;;;;;;7.78;5.22;;;;;;;;;;4811774;29;20412;-86
2023/01/28 14:32:33;;;;;;;9.50;5.35;;;;;;;;;;4811591;29;20061;-90
2023/01/28 14:35:04;;;;;;;10.02;5.45;;;;;;;;;;4811459;29;20086;-88
2023/01/28 14:37:31;;;;;;;9.80;5.80;;;;;;;;;;4811669;29;20065;-87
2023/01/28 14:40:02;;;;;;;8.93;5.72;;;;;;;;;;4781377;29;20087;-86
2023/01/28 14:42:46;;;;;;;8.35;5.68;;;;;;;;;;4811635;29;20050;-87
2023/01/28 14:45:35;;;;;;;8.90;5.43;;;;;;;;;;4810964;29;20066;-90
2023/01/28 14:48:18;;;;;;;7.55;5.38;;;;;;;;;;4792548;29;20412;-87
2023/01/28 14:50:51;;;;;;;8.60;5.18;;;;;;;;;;4811551;29;20500;-87
2023/01/28 14:53:17;;;;;;;7.10;5.53;;;;;;;;;;4811364;29;20055;-89
2023/01/28 14:55:43;;;;;;;6.68;5.18;;;;;;;;;;4810877;29;20518;-87
2023/01/28 14:58:14;;;;;;;9.27;5.38;;;;;;;;;;4811643;29;20141;-89
2023/01/28 15:00:40;;;;;;;9.05;5.50;;;;;;;;;;4811216;29;20141;-87
2023/01/28 15:03:17;;;;;;;10.38;5.60;;;;;;;;;;4810942;29;20057;-87
2023/01/28 15:05:43;;;;;;;12.00;6.65;;;;;;;;;;4811190;29;20492;-87
2023/01/28 15:08:19;;;;;;;8.75;6.22;;;;;;;;;;4811708;29;20047;-88
2023/01/28 15:10:45;;;;;;;11.20;5.95;;;;;;;;;;4811018;29;20087;-87
2023/01/28 15:13:14;;;;;;;8.68;5.53;;;;;;;;;;4810999;29;20059;-88
2023/01/28 15:15:45;;;;;;;8.05;5.05;;;;;;;;;;4811119;29;20058;-89
2023/01/28 15:18:15;;;;;;;10.40;6.38;;;;;;;;;;4810589;29;20090;-86
2023/01/28 15:20:45;;;;;;;9.55;5.85;;;;;;;;;;4810659;29;20061;-88
2023/01/28 15:23:13;;;;;;;6.88;4.82;;;;;;;;;;4810810;29;20448;-90
2023/01/28 15:25:39;;;;;;;7.78;5.15;;;;;;;;;;4811659;29;20149;-88
2023/01/28 15:28:06;;;;;;;8.65;4.13;;;;;;;;;;4810313;29;20047;-88
2023/01/28 15:30:32;;;;;;;6.07;4.63;;;;;;;;;;4810844;29;20508;-89